Time;durP1;ratioP1;P1;durP2;ratioP2;P2;SDS_P1;SDS_P2;PMS_P1;PMS_P2;Temp;Humidity;BMP_temperature;BMP_pressure;BME280_temperature;BME280_humidity;BME280_pressure;Samples;Min_cycle;Max_cycle;Signal;HPM_P1;HPM_P2
2021/09/26 00:01:54;;;;;;;18.33;14.30;;;;;;;17.75;100.00;100388.84;4992698;28;20048;-67
2021/09/26 00:04:38;;;;;;;18.48;14.20;;;;;;;17.73;100.00;100390.06;4993636;28;20153;-68
2021/09/26 00:07:22;;;;;;;17.33;13.95;;;;;;;17.70;100.00;100388.56;4992510;28;20122;-67
2021/09/26 00:10:08;;;;;;;17.67;13.77;;;;;;;17.67;100.00;100393.47;4979101;28;20097;-68
2021/09/26 00:12:52;;;;;;;14.38;11.95;;;;;;;17.65;100.00;100388.28;4992791;28;20057;-68
2021/09/26 00:15:36;;;;;;;17.70;13.75;;;;;;;17.62;100.00;100380.56;4979033;28;20053;-67
2021/09/26 00:18:20;;;;;;;16.23;13.00;;;;;;;17.59;100.00;100367.47;4992709;28;20048;-68
2021/09/26 00:21:04;;;;;;;19.23;14.52;;;;;;;17.60;100.00;100376.41;4992581;28;20049;-67
2021/09/26 00:23:49;;;;;;;16.05;14.27;;;;;;;17.62;100.00;100374.34;4992548;28;20081;-67
2021/09/26 00:26:33;;;;;;;20.58;14.82;;;;;;;17.58;100.00;100363.09;4979103;28;20048;-68
2021/09/26 00:29:17;;;;;;;18.08;13.52;;;;;;;17.56;100.00;100372.38;4992632;28;20193;-67
2021/09/26 00:32:01;;;;;;;15.45;12.80;;;;;;;17.49;100.00;100364.22;4992297;28;20041;-66
2021/09/26 00:34:45;;;;;;;13.75;11.13;;;;;;;17.41;100.00;100358.09;4982456;28;20065;-67
2021/09/26 00:37:29;;;;;;;13.98;11.30;;;;;;;17.36;100.00;100364.03;4997137;28;20100;-68
2021/09/26 00:40:13;;;;;;;14.57;10.43;;;;;;;17.31;100.00;100365.56;4996801;28;20097;-68
2021/09/26 00:42:57;;;;;;;15.82;12.75;;;;;;;17.25;100.00;100367.16;4982152;28;20118;-67
2021/09/26 00:45:41;;;;;;;20.58;14.23;;;;;;;17.23;100.00;100368.34;4995731;28;20050;-68
2021/09/26 00:48:25;;;;;;;19.33;13.32;;;;;;;17.18;100.00;100370.78;4982166;28;20087;-68
2021/09/26 00:51:12;;;;;;;13.63;10.88;;;;;;;17.13;100.00;100371.31;4981658;28;20124;-68
2021/09/26 00:53:56;;;;;;;12.25;10.85;;;;;;;17.05;100.00;100375.94;4995804;28;20049;-67
2021/09/26 00:56:40;;;;;;;15.10;12.43;;;;;;;16.99;100.00;100380.19;4981702;28;20109;-67
2021/09/26 00:59:24;;;;;;;14.63;11.77;;;;;;;16.95;100.00;100370.81;4981697;28;20201;-67
2021/09/26 01:02:08;;;;;;;17.10;12.75;;;;;;;16.94;100.00;100376.38;4995287;28;20046;-67
2021/09/26 01:04:53;;;;;;;16.33;12.43;;;;;;;16.90;100.00;100378.59;4996581;28;20069;-68
2021/09/26 01:07:52;;;;;;;12.60;10.70;;;;;;;16.86;100.00;100377.28;4995575;28;20505;-68
2021/09/26 01:10:45;;;;;;;13.73;11.15;;;;;;;16.84;100.00;100373.09;4981550;28;20073;-67
2021/09/26 01:13:40;;;;;;;14.38;11.38;;;;;;;16.79;100.00;100373.63;4981663;28;20037;-68
2021/09/26 01:16:33;;;;;;;14.48;11.60;;;;;;;16.74;100.00;100370.66;4995358;28;20054;-67
2021/09/26 01:19:54;;;;;;;11.73;9.73;;;;;;;16.67;100.00;100377.78;4995332;28;20101;-67
2021/09/26 01:22:51;;;;;;;16.42;11.52;;;;;;;16.61;100.00;100377.66;4994871;28;20093;-67
2021/09/26 01:25:56;;;;;;;20.48;14.90;;;;;;;16.55;100.00;100384.59;4995928;28;20045;-67
2021/09/26 01:29:11;;;;;;;16.33;12.80;;;;;;;16.51;100.00;100377.91;4995183;28;20049;-67
2021/09/26 01:32:01;;;;;;;13.73;11.93;;;;;;;16.47;100.00;100392.72;4995731;28;20136;-67
2021/09/26 01:34:48;;;;;;;16.50;12.45;;;;;;;16.41;100.00;100388.09;4981335;28;20045;-65
2021/09/26 01:37:44;;;;;;;13.38;11.93;;;;;;;16.34;100.00;100381.69;4981015;28;20527;-67
2021/09/26 01:40:35;;;;;;;28.42;12.80;;;;;;;16.29;100.00;100381.38;4994912;28;20065;-67
2021/09/26 01:43:31;;;;;;;18.58;12.77;;;;;;;16.26;100.00;100380.91;4994903;28;20042;-68
2021/09/26 01:46:22;;;;;;;14.35;12.27;;;;;;;16.22;100.00;100380.44;4994304;28;20053;-67
2021/09/26 01:49:35;;;;;;;15.90;12.18;;;;;;;16.20;100.00;100374.41;4995924;28;20045;-67
2021/09/26 01:52:23;;;;;;;15.88;12.82;;;;;;;16.16;100.00;100383.81;4994452;28;20080;-67
2021/09/26 01:55:08;;;;;;;15.98;11.82;;;;;;;16.14;100.00;100385.00;5032135;23;20080;-66
2021/09/26 01:57:54;;;;;;;11.13;9.82;;;;;;;16.09;100.00;100390.09;5034010;28;20071;-68
2021/09/26 02:00:39;;;;;;;14.80;10.73;;;;;;;16.02;100.00;100398.03;5034713;28;20484;-67
2021/09/26 02:03:24;;;;;;;16.33;13.20;;;;;;;15.99;100.00;100384.91;5033189;28;20151;-67
2021/09/26 02:06:10;;;;;;;13.13;11.70;;;;;;;15.98;100.00;100388.63;5014107;28;20103;-66
2021/09/26 02:08:55;;;;;;;44.20;13.30;;;;;;;15.90;100.00;100390.50;5000183;28;20053;-64
2021/09/26 02:11:40;;;;;;;15.27;12.15;;;;;;;15.86;100.00;100387.34;5013969;28;20045;-67
2021/09/26 02:14:25;;;;;;;16.38;13.23;;;;;;;15.83;100.00;100398.44;5000160;28;20091;-67
2021/09/26 02:17:17;;;;;;;22.60;14.32;;;;;;;15.83;100.00;100398.44;5013652;28;20084;-67
2021/09/26 02:20:02;;;;;;;17.33;13.10;;;;;;;15.79;100.00;100390.91;5013650;28;20091;-67
2021/09/26 02:22:47;;;;;;;13.18;11.00;;;;;;;15.77;100.00;100395.63;4999969;28;20049;-67
2021/09/26 02:25:32;;;;;;;16.27;12.75;;;;;;;15.70;100.00;100398.16;4999621;28;20136;-66
2021/09/26 02:28:18;;;;;;;15.40;12.55;;;;;;;15.70;100.00;100392.78;4999589;28;20129;-67
2021/09/26 02:31:06;;;;;;;18.63;13.10;;;;;;;15.68;100.00;100394.78;5000082;28;20056;-67
2021/09/26 02:33:51;;;;;;;18.35;14.52;;;;;;;15.65;100.00;100387.09;5013456;28;20049;-67
2021/09/26 02:36:35;;;;;;;18.17;13.55;;;;;;;15.63;100.00;100385.56;5013566;28;20053;-67
2021/09/26 02:39:19;;;;;;;20.90;15.00;;;;;;;15.60;100.00;100382.44;5014248;28;20133;-67
2021/09/26 02:42:13;;;;;;;23.95;16.20;;;;;;;15.63;100.00;100381.06;5013391;28;20145;-67
2021/09/26 02:45:05;;;;;;;18.45;15.32;;;;;;;15.62;100.00;100388.47;5013166;28;20049;-66
2021/09/26 02:48:00;;;;;;;25.02;16.40;;;;;;;15.55;100.00;100376.72;4999590;28;20065;-66
2021/09/26 02:50:46;;;;;;;26.92;17.17;;;;;;;15.53;100.00;100381.44;4999270;28;20567;-67
2021/09/26 02:53:30;;;;;;;27.88;14.40;;;;;;;15.50;100.00;100384.47;5012818;28;20045;-67
2021/09/26 02:56:14;;;;;;;17.85;13.30;;;;;;;15.44;100.00;100374.41;5013003;28;20524;-67
2021/09/26 02:59:00;;;;;;;20.70;13.80;;;;;;;15.40;100.00;100384.66;5013204;28;20136;-67
2021/09/26 03:01:51;;;;;;;21.45;14.63;;;;;;;15.32;100.00;100387.34;5013776;28;20049;-67
2021/09/26 03:04:45;;;;;;;17.67;12.50;;;;;;;15.28;100.00;100377.09;5014052;28;20456;-67
2021/09/26 03:07:29;;;;;;;17.33;13.13;;;;;;;15.23;100.00;100376.78;5012809;28;20044;-67
2021/09/26 03:10:13;;;;;;;16.65;11.88;;;;;;;15.17;100.00;100372.94;5013269;28;20129;-67
2021/09/26 03:12:57;;;;;;;16.80;12.82;;;;;;;15.12;100.00;100374.44;5014003;28;20133;-67
2021/09/26 03:15:40;;;;;;;16.25;12.73;;;;;;;15.11;100.00;100372.78;4999043;28;20116;-68
2021/09/26 03:18:24;;;;;;;16.52;12.25;;;;;;;15.07;100.00;100383.00;5012963;28;20514;-66
2021/09/26 03:21:08;;;;;;;13.63;12.02;;;;;;;15.05;100.00;100378.81;4999285;28;20057;-67
2021/09/26 03:23:53;;;;;;;21.60;13.25;;;;;;;15.04;100.00;100371.78;5013549;28;20100;-67
2021/09/26 03:26:37;;;;;;;17.80;13.32;;;;;;;15.02;100.00;100369.25;5012811;28;20517;-67
2021/09/26 03:29:21;;;;;;;14.85;11.40;;;;;;;15.02;100.00;100368.41;5012527;28;20564;-67
2021/09/26 03:32:05;;;;;;;15.32;12.70;;;;;;;15.01;100.00;100374.81;5013760;28;20092;-68
2021/09/26 03:34:49;;;;;;;13.82;11.20;;;;;;;15.00;100.00;100365.06;4998626;28;20470;-67
2021/09/26 03:37:33;;;;;;;13.50;11.30;;;;;;;14.96;100.00;100374.47;4998989;28;20048;-67
2021/09/26 03:40:18;;;;;;;17.42;12.32;;;;;;;14.93;100.00;100377.50;5012695;28;20053;-68
2021/09/26 03:43:02;;;;;;;19.45;15.05;;;;;;;14.94;100.00;100376.47;5012490;28;20044;-68
2021/09/26 03:45:50;;;;;;;19.17;13.90;;;;;;;14.88;100.00;100378.00;5012666;28;20088;-68
2021/09/26 03:48:33;;;;;;;20.15;12.43;;;;;;;14.84;100.00;100371.31;5012637;28;20100;-67
2021/09/26 03:51:17;;;;;;;15.10;12.35;;;;;;;14.85;100.00;100380.19;5013448;28;20418;-68
2021/09/26 03:54:01;;;;;;;13.00;10.52;;;;;;;14.82;100.00;100376.00;5012380;28;20541;-68
2021/09/26 03:56:46;;;;;;;15.23;12.50;;;;;;;14.77;100.00;100374.81;5012556;28;20406;-68
2021/09/26 03:59:30;;;;;;;15.60;12.13;;;;;;;14.75;100.00;100372.31;4998651;28;20474;-68
2021/09/26 04:02:14;;;;;;;13.15;11.13;;;;;;;14.75;100.00;100371.44;5012400;28;20052;-68
2021/09/26 04:04:58;;;;;;;15.27;12.27;;;;;;;14.72;100.00;100361.06;5012624;28;20056;-68
2021/09/26 04:07:42;;;;;;;19.10;11.80;;;;;;;14.70;100.00;100355.84;5013339;28;20104;-68
2021/09/26 04:10:26;;;;;;;;;;;;;;;14.69;100.00;100358.72;5017397;28;20056;-68
2021/09/26 04:13:10;;;;;;;13.98;10.90;;;;;;;14.70;100.00;100357.72;5017221;28;19936;-68
2021/09/26 04:15:54;;;;;;;17.35;12.85;;;;;;;14.68;100.00;100359.75;5002324;28;20048;-68
2021/09/26 04:18:38;;;;;;;17.35;12.65;;;;;;;14.67;100.00;100358.06;5016880;28;20084;-68
2021/09/26 04:21:22;;;;;;;15.82;12.40;;;;;;;14.66;100.00;100351.00;5016702;28;20077;-68
2021/09/26 04:24:06;;;;;;;15.57;12.57;;;;;;;14.63;100.00;100349.50;5002018;28;20568;-67
2021/09/26 04:26:50;;;;;;;19.98;13.43;;;;;;;14.63;100.00;100345.97;5015898;28;20184;-68
2021/09/26 04:29:34;;;;;;;13.85;11.38;;;;;;;14.62;100.00;100349.66;5015924;28;20505;-66
2021/09/26 04:32:19;;;;;;;17.95;12.35;;;;;;;14.61;100.00;100337.25;5002242;28;20060;-68
2021/09/26 04:35:04;;;;;;;14.57;11.10;;;;;;;14.58;100.00;100332.25;5015677;28;20095;-68
2021/09/26 04:37:50;;;;;;;16.10;10.23;;;;;;;14.53;100.00;100331.88;5015746;28;20506;-68
2021/09/26 04:40:34;;;;;;;12.98;10.57;;;;;;;14.47;100.00;100336.06;5016447;28;20053;-68
2021/09/26 04:43:18;;;;;;;15.65;12.77;;;;;;;14.46;100.00;100346.97;5001697;28;20119;-69
2021/09/26 04:46:02;;;;;;;21.58;14.25;;;;;;;14.40;100.00;100348.47;5015393;28;20468;-68
2021/09/26 04:48:46;;;;;;;15.65;12.63;;;;;;;14.41;100.00;100343.97;5015577;28;20092;-68
2021/09/26 04:51:30;;;;;;;16.27;11.77;;;;;;;14.38;100.00;100347.81;5015526;28;20049;-68
2021/09/26 04:54:14;;;;;;;15.65;12.43;;;;;;;14.38;100.00;100352.34;5016065;28;20061;-67
2021/09/26 04:56:58;;;;;;;14.93;12.52;;;;;;;14.37;100.00;100350.66;5016144;28;20045;-68
2021/09/26 04:59:41;;;;;;;15.00;11.63;;;;;;;14.34;100.00;100350.97;5001460;28;20139;-68
2021/09/26 05:02:25;;;;;;;12.05;10.20;;;;;;;14.29;100.00;100350.66;5001315;28;20053;-67
2021/09/26 05:05:10;;;;;;;15.82;13.20;;;;;;;14.28;100.00;100357.84;5001118;28;20080;-68
2021/09/26 05:07:54;;;;;;;16.48;13.15;;;;;;;14.29;100.00;100364.88;5001340;28;20426;-68
2021/09/26 05:10:38;;;;;;;15.27;12.00;;;;;;;14.29;100.00;100372.09;5016365;28;20052;-68
2021/09/26 05:13:22;;;;;;;14.63;11.95;;;;;;;14.29;100.00;100367.56;5014752;28;20045;-69
2021/09/26 05:16:06;;;;;;;12.40;10.68;;;;;;;14.29;100.00;100380.97;5015013;28;20052;-67
2021/09/26 05:18:50;;;;;;;;;;;;;;;14.29;100.00;100369.44;5015319;28;20056;-68
2021/09/26 05:21:34;;;;;;;11.67;9.97;;;;;;;14.28;100.00;100368.56;5014905;28;20027;-68
2021/09/26 05:24:18;;;;;;;12.77;9.55;;;;;;;14.28;100.00;100378.47;5014521;28;20068;-68
2021/09/26 05:27:03;;;;;;;16.02;11.52;;;;;;;14.28;100.00;100378.47;5014797;28;20100;-68
2021/09/26 05:29:47;;;;;;;14.10;11.63;;;;;;;14.27;100.00;100376.81;5015456;28;20099;-68
2021/09/26 05:32:31;;;;;;;12.98;10.57;;;;;;;14.28;100.00;100381.97;5014770;28;20088;-68
2021/09/26 05:35:15;;;;;;;12.73;11.32;;;;;;;14.29;100.00;100380.97;5014625;28;20160;-68
2021/09/26 05:37:59;;;;;;;19.25;13.63;;;;;;;14.35;100.00;100376.78;5014356;28;20192;-68
2021/09/26 05:40:43;;;;;;;18.35;12.93;;;;;;;14.39;100.00;100362.06;5014578;28;20276;-68
2021/09/26 05:43:27;;;;;;;14.77;11.77;;;;;;;14.38;100.00;100365.75;5000253;28;20103;-68
2021/09/26 05:46:11;;;;;;;15.25;11.88;;;;;;;14.42;100.00;100369.78;5014380;28;20129;-68
2021/09/26 05:48:55;;;;;;;12.82;10.70;;;;;;;14.44;100.00;100376.66;5014234;28;20099;-68
2021/09/26 05:51:39;;;;;;;17.02;12.52;;;;;;;14.48;100.00;100377.16;5015145;28;20367;-68
2021/09/26 05:54:23;;;;;;;19.15;12.73;;;;;;;14.57;100.00;100393.09;5015162;28;20057;-68
2021/09/26 05:57:08;;;;;;;14.85;11.20;;;;;;;14.60;100.00;100397.28;5015280;28;20052;-68
2021/09/26 05:59:51;;;;;;;15.82;12.02;;;;;;;14.67;100.00;100387.59;5000371;28;20092;-68
2021/09/26 06:02:36;;;;;;;14.18;11.70;;;;;;;14.78;100.00;100389.94;5000081;28;20103;-68
2021/09/26 06:05:22;;;;;;;13.88;9.52;;;;;;;14.87;100.00;100381.69;5000189;28;20415;-68
2021/09/26 06:08:10;;;;;;;12.50;10.63;;;;;;;14.96;100.00;100374.47;5015048;28;20450;-68
2021/09/26 06:10:54;;;;;;;15.10;11.77;;;;;;;15.00;100.00;100383.88;5014192;28;20053;-68
2021/09/26 06:13:38;;;;;;;17.42;11.02;;;;;;;15.10;100.00;100397.94;5014654;28;20049;-68
2021/09/26 06:16:22;;;;;;;15.88;11.95;;;;;;;15.16;100.00;100399.94;5014200;28;20517;-68
2021/09/26 06:19:06;;;;;;;13.38;11.57;;;;;;;15.26;100.00;100388.03;5013914;28;20123;-68
2021/09/26 06:21:50;;;;;;;13.18;11.10;;;;;;;15.41;100.00;100397.06;5014628;28;20069;-68
2021/09/26 06:24:34;;;;;;;13.55;11.10;;;;;;;15.53;100.00;100411.00;5013654;28;20519;-68
2021/09/26 06:27:18;;;;;;;15.00;11.45;;;;;;;15.68;100.00;100410.91;5014722;28;20565;-68
2021/09/26 06:30:04;;;;;;;12.77;10.70;;;;;;;15.77;100.00;100401.00;5013332;28;20101;-68
2021/09/26 06:32:48;;;;;;;13.02;10.60;;;;;;;15.91;100.00;100411.88;4999894;28;20046;-68
2021/09/26 06:35:33;;;;;;;13.68;11.02;;;;;;;16.03;100.00;100418.53;5014555;28;20141;-68
2021/09/26 06:38:16;;;;;;;17.92;12.35;;;;;;;16.14;100.00;100420.81;5013550;28;20103;-68
2021/09/26 06:41:01;;;;;;;13.02;10.52;;;;;;;16.33;100.00;100420.38;5014274;28;20115;-67
2021/09/26 06:43:45;;;;;;;16.70;11.77;;;;;;;16.56;100.00;100426.66;5013347;28;20087;-66
2021/09/26 06:46:30;;;;;;;15.70;10.07;;;;;;;16.78;100.00;100427.69;5013456;28;20080;-68
2021/09/26 06:49:14;;;;;;;12.93;9.07;;;;;;;16.95;100.00;100434.59;5013396;28;20084;-68
2021/09/26 06:51:58;;;;;;;13.77;10.02;;;;;;;17.10;100.00;100428.22;4999465;28;20128;-67
2021/09/26 06:54:43;;;;;;;15.02;9.48;;;;;;;17.25;100.00;100426.44;5012955;28;20096;-67
2021/09/26 06:57:26;;;;;;;13.68;8.82;;;;;;;17.32;100.00;100421.13;4999522;28;20137;-68
2021/09/26 07:00:11;;;;;;;12.23;8.85;;;;;;;17.20;100.00;100423.44;5014152;28;20561;-67
2021/09/26 07:02:55;;;;;;;12.93;8.93;;;;;;;17.23;100.00;100411.44;5012995;28;20103;-68
2021/09/26 07:05:39;;;;;;;11.20;9.38;;;;;;;17.27;100.00;100412.75;5014139;28;20056;-68
2021/09/26 07:08:22;;;;;;;12.27;10.30;;;;;;;17.30;100.00;100407.84;5013055;28;20056;-67
2021/09/26 07:11:07;;;;;;;12.23;9.30;;;;;;;17.30;100.00;100424.00;5012847;28;20469;-68
2021/09/26 07:13:50;;;;;;;13.07;9.88;;;;;;;17.26;100.00;100433.50;5013939;28;20403;-68
2021/09/26 07:16:34;;;;;;;12.32;9.57;;;;;;;17.28;100.00;100436.00;5012920;28;20418;-68
2021/09/26 07:19:18;;;;;;;11.30;9.23;;;;;;;17.22;100.00;100448.34;5013871;28;20049;-68
2021/09/26 07:22:03;;;;;;;12.30;9.38;;;;;;;17.17;100.00;100450.75;4999146;28;20053;-68
2021/09/26 07:24:46;;;;;;;12.93;9.57;;;;;;;17.13;100.00;100449.44;4998925;28;20048;-68
2021/09/26 07:27:30;;;;;;;10.43;9.20;;;;;;;17.16;100.00;100449.06;4999006;28;20136;-68
2021/09/26 07:30:14;;;;;;;10.15;9.02;;;;;;;17.22;100.00;100469.91;5013732;28;20053;-67
2021/09/26 07:32:58;;;;;;;13.65;9.43;;;;;;;17.19;100.00;100470.25;5013814;28;20093;-68
2021/09/26 07:35:45;;;;;;;16.58;10.45;;;;;;;17.25;100.00;100477.63;5012777;28;20435;-68
2021/09/26 07:38:29;;;;;;;15.45;10.43;;;;;;;17.27;100.00;100491.75;5013578;28;20088;-68
2021/09/26 07:41:13;;;;;;;14.50;9.75;;;;;;;17.27;100.00;100499.81;5013414;28;20057;-68
2021/09/26 07:43:57;;;;;;;13.48;9.63;;;;;;;17.19;100.00;100494.50;5015849;28;20056;-67
2021/09/26 07:46:44;;;;;;;12.68;9.68;;;;;;;17.22;100.00;100498.69;5002763;28;20136;-68
2021/09/26 07:49:28;;;;;;;11.80;9.80;;;;;;;17.15;100.00;100513.91;5017451;28;20103;-68
2021/09/26 07:52:12;;;;;;;13.10;10.70;;;;;;;17.12;100.00;100517.81;5016604;28;20111;-67
2021/09/26 07:54:57;;;;;;;15.65;9.90;;;;;;;17.11;100.00;100528.75;5037046;22;20044;-64
2021/09/26 07:57:40;;;;;;;13.70;10.02;;;;;;;17.06;100.00;100514.97;5010813;28;20053;-65
2021/09/26 08:00:24;;;;;;;16.88;11.05;;;;;;;17.06;100.00;100517.66;4996537;28;20057;-65
2021/09/26 08:03:08;;;;;;;16.17;10.98;;;;;;;17.08;100.00;100516.47;4996733;28;20406;-65
2021/09/26 08:05:53;;;;;;;14.73;11.45;;;;;;;17.09;100.00;100504.69;4996687;28;20053;-64
2021/09/26 08:08:40;;;;;;;20.75;11.75;;;;;;;17.18;100.00;100490.13;4996556;28;20052;-64
2021/09/26 08:11:24;;;;;;;16.52;11.60;;;;;;;17.13;100.00;100489.84;4997632;28;20407;-65
2021/09/26 08:14:08;;;;;;;18.00;12.65;;;;;;;17.19;100.00;100483.72;4996535;28;20054;-65
2021/09/26 08:16:52;;;;;;;16.58;11.95;;;;;;;17.10;100.00;100494.75;4997153;28;20054;-65
2021/09/26 08:19:36;;;;;;;17.67;11.88;;;;;;;17.12;100.00;100495.41;4996176;28;20049;-65
2021/09/26 08:22:20;;;;;;;14.45;12.85;;;;;;;17.17;100.00;100482.22;4996414;28;20088;-66
2021/09/26 08:25:06;;;;;;;17.55;12.75;;;;;;;17.20;100.00;100492.66;4982279;28;20056;-66
2021/09/26 08:27:51;;;;;;;16.70;11.77;;;;;;;17.26;100.00;100487.38;4982818;28;20144;-65
2021/09/26 08:30:35;;;;;;;14.95;11.95;;;;;;;17.36;100.00;100498.78;4996290;28;20065;-66
2021/09/26 08:33:19;;;;;;;16.25;12.05;;;;;;;17.42;100.00;100508.81;4996266;28;20050;-66
2021/09/26 08:36:03;;;;;;;16.15;12.00;;;;;;;17.39;100.00;100521.84;4982411;28;20093;-65
2021/09/26 08:38:47;;;;;;;16.73;12.13;;;;;;;17.45;100.00;100529.19;4996367;28;20053;-65
2021/09/26 08:41:32;;;;;;;17.00;11.68;;;;;;;17.46;100.00;100530.84;4996019;28;20049;-66
2021/09/26 08:44:15;;;;;;;16.17;12.63;;;;;;;17.46;100.00;100533.53;4996509;28;20057;-65
2021/09/26 08:47:00;;;;;;;18.05;14.15;;;;;;;17.49;100.00;100539.41;4981247;28;20049;-65
2021/09/26 08:49:44;;;;;;;21.05;13.68;;;;;;;17.56;100.00;100547.59;4981451;28;20096;-65
2021/09/26 08:52:29;;;;;;;18.25;13.05;;;;;;;17.54;100.00;100547.81;4995391;28;20041;-65
2021/09/26 08:55:14;;;;;;;17.75;13.02;;;;;;;17.55;100.00;100552.19;4994854;28;20065;-64
2021/09/26 08:57:58;;;;;;;21.98;12.57;;;;;;;17.64;100.00;100561.03;4995199;28;20111;-66
2021/09/26 09:00:42;;;;;;;18.20;13.15;;;;;;;17.61;100.00;100556.00;4995144;28;20104;-66
2021/09/26 09:03:26;;;;;;;15.88;12.98;;;;;;;17.66;100.00;100558.97;4994741;28;20054;-65
2021/09/26 09:06:10;;;;;;;16.33;12.52;;;;;;;17.75;100.00;100553.34;4981005;28;20096;-66
2021/09/26 09:09:05;;;;;;;19.30;12.88;;;;;;;17.83;100.00;100555.94;4994649;28;20049;-66
2021/09/26 09:12:01;;;;;;;19.20;12.02;;;;;;;17.89;100.00;100552.53;4995092;28;20045;-66
2021/09/26 09:14:57;;;;;;;15.55;11.77;;;;;;;18.01;100.00;100553.72;4994759;28;20097;-66
2021/09/26 09:17:43;;;;;;;17.20;12.77;;;;;;;18.10;100.00;100552.63;4980823;28;20041;-66
2021/09/26 09:20:28;;;;;;;16.75;12.00;;;;;;;18.25;100.00;100553.50;4994689;28;20053;-66
2021/09/26 09:23:17;;;;;;;17.92;12.57;;;;;;;18.28;100.00;100545.00;4994357;28;20081;-66
2021/09/26 09:26:01;;;;;;;15.88;11.50;;;;;;;18.38;100.00;100549.13;4980534;28;20100;-66
2021/09/26 09:28:45;;;;;;;16.85;11.68;;;;;;;18.50;100.00;100555.72;4994543;28;20048;-66
2021/09/26 09:31:29;;;;;;;17.85;12.77;;;;;;;18.53;100.00;100549.94;4995361;28;20355;-65
2021/09/26 09:34:35;;;;;;;22.60;13.48;;;;;;;18.71;100.00;100546.84;4994701;28;20061;-66
2021/09/26 09:37:24;;;;;;;19.77;12.65;;;;;;;18.71;100.00;100554.94;4980450;28;20510;-66
2021/09/26 09:40:10;;;;;;;17.48;12.65;;;;;;;18.82;100.00;100554.44;4995372;28;20053;-66
2021/09/26 09:42:55;;;;;;;18.45;13.40;;;;;;;18.87;100.00;100565.53;4994233;28;20065;-66
2021/09/26 09:45:52;;;;;;;18.85;12.52;;;;;;;18.85;100.00;100559.47;4995076;28;20132;-66
2021/09/26 09:48:36;;;;;;;22.85;13.70;;;;;;;18.99;100.00;100558.59;4994205;28;20433;-66
2021/09/26 09:51:20;;;;;;;17.02;12.98;;;;;;;19.03;100.00;100549.06;4994139;28;20180;-66
2021/09/26 09:54:04;;;;;;;16.08;11.98;;;;;;;19.03;100.00;100557.19;4993887;28;20121;-66
2021/09/26 09:56:48;;;;;;;19.20;13.57;;;;;;;19.10;100.00;100552.69;4993868;28;20097;-66
2021/09/26 09:59:33;;;;;;;19.75;12.35;;;;;;;19.25;100.00;100545.38;4979948;28;20463;-66
2021/09/26 10:02:18;;;;;;;18.08;12.05;;;;;;;19.44;100.00;100534.78;4994571;28;20414;-66
2021/09/26 10:05:03;;;;;;;18.95;11.50;;;;;;;19.53;100.00;100528.19;4993070;28;20556;-66
2021/09/26 10:07:47;;;;;;;16.20;11.45;;;;;;;19.66;100.00;100533.72;4993562;28;20049;-66
2021/09/26 10:10:33;;;;;;;16.77;11.38;;;;;;;19.86;100.00;100533.84;4994740;28;20053;-66
2021/09/26 10:13:17;;;;;;;17.20;12.40;;;;;;;20.19;100.00;100538.47;4993576;28;20105;-66
2021/09/26 10:16:05;;;;;;;15.55;10.82;;;;;;;20.44;100.00;100534.25;4993638;28;20392;-66
2021/09/26 10:18:49;;;;;;;15.68;11.40;;;;;;;20.91;100.00;100533.44;4979875;28;20125;-66
2021/09/26 10:21:33;;;;;;;14.77;10.52;;;;;;;21.58;100.00;100527.69;4993428;28;20521;-66
2021/09/26 10:24:19;;;;;;;11.93;9.43;;;;;;;22.17;100.00;100525.78;4993497;28;20526;-67
2021/09/26 10:27:08;;;;;;;11.80;9.35;;;;;;;22.82;100.00;100525.56;4993623;28;20522;-67
2021/09/26 10:30:03;;;;;;;16.92;9.57;;;;;;;22.96;94.78;100531.75;4993627;28;20419;-67
2021/09/26 10:32:49;;;;;;;12.38;8.85;;;;;;;23.07;91.01;100529.19;4994120;28;20104;-66
2021/09/26 10:35:33;;;;;;;10.95;8.95;;;;;;;22.74;93.73;100536.69;4992985;28;20100;-67
2021/09/26 10:38:17;;;;;;;13.95;9.20;;;;;;;22.81;91.25;100529.31;4992997;28;20096;-66
2021/09/26 10:41:06;;;;;;;14.77;9.05;;;;;;;23.13;91.37;100527.50;4993257;28;20093;-67
2021/09/26 10:43:52;;;;;;;13.35;8.77;;;;;;;24.27;85.43;100525.06;4979453;28;20575;-67
2021/09/26 10:46:35;;;;;;;11.52;8.05;;;;;;;26.76;74.04;100522.59;4994115;28;20514;-66
2021/09/26 10:49:23;;;;;;;;;;;;;;;28.03;62.34;100518.09;4993215;28;20526;-67
2021/09/26 10:52:22;;;;;;;9.80;7.20;;;;;;;30.44;55.21;100519.59;4992684;28;20012;-67
2021/09/26 10:55:29;;;;;;;10.02;7.45;;;;;;;30.33;52.78;100529.69;4993859;28;20081;-67
2021/09/26 10:58:16;;;;;;;8.55;7.47;;;;;;;30.28;54.57;100520.59;4994928;28;20137;-66
2021/09/26 11:01:01;;;;;;;9.68;7.28;;;;;;;30.10;55.30;100518.28;4992968;28;20053;-66
2021/09/26 11:03:45;;;;;;;12.32;7.60;;;;;;;31.21;53.36;100517.72;4992769;28;20061;-67
2021/09/26 11:06:30;;;;;;;8.43;6.38;;;;;;;32.32;48.04;100511.13;4992807;28;20077;-67
2021/09/26 11:09:14;;;;;;;8.23;6.80;;;;;;;33.95;45.00;100521.56;4993691;28;20089;-65
2021/09/26 11:11:58;;;;;;;8.45;6.95;;;;;;;34.38;43.30;100517.81;4992627;28;20049;-67
2021/09/26 11:15:03;;;;;;;7.97;6.32;;;;;;;35.37;41.26;100510.13;4978768;28;20101;-64
2021/09/26 11:17:48;;;;;;;9.05;6.95;;;;;;;35.07;38.93;100520.84;4993448;28;20053;-64
2021/09/26 11:20:31;;;;;;;8.45;6.88;;;;;;;34.42;40.62;100514.16;4992495;28;20049;-65
2021/09/26 11:23:31;;;;;;;9.05;7.32;;;;;;;34.22;41.59;100522.69;4992223;28;20053;-65
2021/09/26 11:26:15;;;;;;;10.52;7.03;;;;;;;33.33;42.32;100518.72;4993429;28;20052;-67
2021/09/26 11:29:00;;;;;;;8.55;7.40;;;;;;;33.10;44.00;100503.63;4993360;28;20069;-67
2021/09/26 11:31:44;;;;;;;10.20;7.15;;;;;;;32.36;45.53;100510.28;4993503;28;20053;-67
2021/09/26 11:34:51;;;;;;;9.00;7.22;;;;;;;30.07;52.52;100515.25;4992341;28;20049;-67
2021/09/26 11:37:34;;;;;;;12.60;7.70;;;;;;;28.79;57.06;100509.00;4993434;28;20042;-66
2021/09/26 11:40:23;;;;;;;8.77;7.68;;;;;;;27.88;60.20;100506.91;4993376;28;20504;-67
2021/09/26 11:43:20;;;;;;;16.13;8.82;;;;;;;26.82;64.77;100510.69;4993113;28;20140;-67
2021/09/26 11:46:19;;;;;;;13.65;8.25;;;;;;;26.14;67.68;100514.41;4978623;28;20104;-66
2021/09/26 11:49:08;;;;;;;11.75;8.50;;;;;;;25.35;72.75;100516.78;4993317;28;20057;-67
2021/09/26 11:51:54;;;;;;;13.35;9.43;;;;;;;25.29;72.95;100521.28;4978310;28;20045;-66
2021/09/26 11:54:38;;;;;;;10.77;8.23;;;;;;;24.87;74.56;100510.53;4992032;28;20432;-67
2021/09/26 11:57:22;;;;;;;13.25;8.48;;;;;;;24.34;78.27;100517.66;4978619;28;20096;-67
2021/09/26 12:00:07;;;;;;;11.63;8.45;;;;;;;24.26;78.90;100507.06;4993000;28;20100;-66
2021/09/26 12:02:51;;;;;;;11.82;8.35;;;;;;;24.21;75.80;100515.91;4992093;28;20101;-66
2021/09/26 12:05:36;;;;;;;;;;;;;;;24.24;78.14;100507.31;4992399;28;20116;-66
2021/09/26 12:08:19;;;;;;;11.95;9.13;;;;;;;23.43;82.61;100513.06;4978302;28;19971;-67
2021/09/26 12:11:07;;;;;;;12.15;8.48;;;;;;;23.54;81.99;100503.34;4993045;28;20053;-66
2021/09/26 12:13:54;;;;;;;10.98;8.27;;;;;;;23.38;82.48;100504.75;4993229;28;20050;-67
2021/09/26 12:16:38;;;;;;;13.80;8.93;;;;;;;23.20;84.94;100501.94;4991682;28;20057;-67
2021/09/26 12:19:22;;;;;;;;;;;;;;;22.84;86.52;100493.53;4978703;28;20100;-66
2021/09/26 12:22:17;;;;;;;12.80;9.75;;;;;;;22.82;87.25;100497.56;4993188;28;19924;-67
2021/09/26 12:25:10;;;;;;;12.93;9.73;;;;;;;22.73;88.01;100493.41;4991616;28;20049;-67
2021/09/26 12:27:58;;;;;;;13.13;10.40;;;;;;;22.66;87.66;100493.44;4993046;28;20053;-67
2021/09/26 12:30:41;;;;;;;16.90;10.27;;;;;;;22.89;87.21;100493.75;4995348;28;20129;-66
2021/09/26 12:33:45;;;;;;;13.05;9.45;;;;;;;23.77;83.77;100487.22;4996868;28;20126;-67